sensor_id;sensor_type;location;lat;lon;timestamp;P1;durP1;ratioP1;P2;durP2;ratioP2
51758;SDS011;66684;47.568;18.734;2023-05-27T00:00:07;16.33;;;12.48;;
51758;SDS011;66684;47.568;18.734;2023-05-27T00:02:34;13.88;;;11.38;;
51758;SDS011;66684;47.568;18.734;2023-05-27T00:05:00;14.13;;;11.02;;
51758;SDS011;66684;47.568;18.734;2023-05-27T00:07:27;13.38;;;10.55;;
51758;SDS011;66684;47.568;18.734;2023-05-27T00:09:53;14.87;;;10.85;;
51758;SDS011;66684;47.568;18.734;2023-05-27T00:12:20;16.02;;;10.00;;
51758;SDS011;66684;47.568;18.734;2023-05-27T00:14:46;15.45;;;11.02;;
51758;SDS011;66684;47.568;18.734;2023-05-27T00:17:12;14.32;;;10.38;;
51758;SDS011;66684;47.568;18.734;2023-05-27T00:19:39;13.57;;;11.02;;
51758;SDS011;66684;47.568;18.734;2023-05-27T00:22:06;13.50;;;10.52;;
51758;SDS011;66684;47.568;18.734;2023-05-27T00:24:33;15.73;;;10.88;;
51758;SDS011;66684;47.568;18.734;2023-05-27T00:27:00;15.98;;;11.30;;
51758;SDS011;66684;47.568;18.734;2023-05-27T00:29:28;15.68;;;10.73;;
51758;SDS011;66684;47.568;18.734;2023-05-27T00:31:54;14.52;;;11.30;;
51758;SDS011;66684;47.568;18.734;2023-05-27T00:34:20;17.12;;;11.70;;
51758;SDS011;66684;47.568;18.734;2023-05-27T00:36:46;14.20;;;12.02;;
51758;SDS011;66684;47.568;18.734;2023-05-27T00:39:11;15.00;;;11.90;;
51758;SDS011;66684;47.568;18.734;2023-05-27T00:41:37;14.65;;;11.90;;
51758;SDS011;66684;47.568;18.734;2023-05-27T00:44:08;15.45;;;10.70;;
51758;SDS011;66684;47.568;18.734;2023-05-27T00:46:34;15.82;;;10.55;;
51758;SDS011;66684;47.568;18.734;2023-05-27T00:49:00;16.30;;;12.18;;
51758;SDS011;66684;47.568;18.734;2023-05-27T00:51:26;17.00;;;13.10;;
51758;SDS011;66684;47.568;18.734;2023-05-27T00:53:52;21.45;;;12.27;;
51758;SDS011;66684;47.568;18.734;2023-05-27T00:56:18;16.60;;;12.10;;
51758;SDS011;66684;47.568;18.734;2023-05-27T00:58:46;16.17;;;11.75;;
51758;SDS011;66684;47.568;18.734;2023-05-27T01:01:12;15.13;;;11.10;;
51758;SDS011;66684;47.568;18.734;2023-05-27T01:03:38;14.30;;;10.70;;
51758;SDS011;66684;47.568;18.734;2023-05-27T01:09:23;16.33;;;11.40;;
51758;SDS011;66684;47.568;18.734;2023-05-27T01:14:36;18.17;;;11.52;;
51758;SDS011;66684;47.568;18.734;2023-05-27T01:17:05;14.77;;;10.95;;
51758;SDS011;66684;47.568;18.734;2023-05-27T01:19:36;15.15;;;10.98;;
51758;SDS011;66684;47.568;18.734;2023-05-27T01:22:13;13.85;;;10.95;;
51758;SDS011;66684;47.568;18.734;2023-05-27T01:24:40;19.27;;;11.50;;
51758;SDS011;66684;47.568;18.734;2023-05-27T01:27:07;18.50;;;10.25;;
51758;SDS011;66684;47.568;18.734;2023-05-27T01:29:33;19.98;;;10.82;;
51758;SDS011;66684;47.568;18.734;2023-05-27T01:32:07;13.93;;;9.95;;
51758;SDS011;66684;47.568;18.734;2023-05-27T01:34:46;13.60;;;10.35;;
51758;SDS011;66684;47.568;18.734;2023-05-27T01:37:19;13.07;;;10.07;;
51758;SDS011;66684;47.568;18.734;2023-05-27T01:39:47;11.68;;;9.70;;
51758;SDS011;66684;47.568;18.734;2023-05-27T01:42:15;14.38;;;9.88;;
51758;SDS011;66684;47.568;18.734;2023-05-27T01:44:42;13.77;;;10.27;;
51758;SDS011;66684;47.568;18.734;2023-05-27T01:47:08;17.73;;;11.18;;
51758;SDS011;66684;47.568;18.734;2023-05-27T01:49:36;17.45;;;11.55;;
51758;SDS011;66684;47.568;18.734;2023-05-27T01:52:02;13.27;;;11.18;;
51758;SDS011;66684;47.568;18.734;2023-05-27T01:54:28;16.50;;;12.23;;
51758;SDS011;66684;47.568;18.734;2023-05-27T01:56:54;17.12;;;10.85;;
51758;SDS011;66684;47.568;18.734;2023-05-27T01:59:19;16.73;;;11.32;;
51758;SDS011;66684;47.568;18.734;2023-05-27T02:01:45;14.98;;;11.50;;
51758;SDS011;66684;47.568;18.734;2023-05-27T02:04:11;16.90;;;11.70;;
51758;SDS011;66684;47.568;18.734;2023-05-27T02:06:37;17.08;;;11.88;;
51758;SDS011;66684;47.568;18.734;2023-05-27T02:09:03;14.38;;;11.95;;
51758;SDS011;66684;47.568;18.734;2023-05-27T02:11:30;16.10;;;12.07;;
51758;SDS011;66684;47.568;18.734;2023-05-27T02:13:56;16.17;;;11.40;;
51758;SDS011;66684;47.568;18.734;2023-05-27T02:16:22;18.48;;;11.90;;
51758;SDS011;66684;47.568;18.734;2023-05-27T02:18:48;15.10;;;11.12;;
51758;SDS011;66684;47.568;18.734;2023-05-27T02:21:14;15.52;;;12.27;;
51758;SDS011;66684;47.568;18.734;2023-05-27T02:23:40;18.50;;;11.93;;
51758;SDS011;66684;47.568;18.734;2023-05-27T02:26:06;18.08;;;11.75;;
51758;SDS011;66684;47.568;18.734;2023-05-27T02:28:32;17.37;;;12.52;;
51758;SDS011;66684;47.568;18.734;2023-05-27T02:30:59;16.92;;;12.00;;
51758;SDS011;66684;47.568;18.734;2023-05-27T02:33:25;19.85;;;11.85;;
51758;SDS011;66684;47.568;18.734;2023-05-27T02:35:51;14.20;;;11.90;;
51758;SDS011;66684;47.568;18.734;2023-05-27T02:38:17;15.75;;;11.32;;
51758;SDS011;66684;47.568;18.734;2023-05-27T02:40:43;15.55;;;11.80;;
51758;SDS011;66684;47.568;18.734;2023-05-27T02:43:09;18.73;;;11.52;;
51758;SDS011;66684;47.568;18.734;2023-05-27T02:45:34;18.65;;;12.43;;
51758;SDS011;66684;47.568;18.734;2023-05-27T02:48:00;16.00;;;12.40;;
51758;SDS011;66684;47.568;18.734;2023-05-27T02:50:27;19.62;;;13.40;;
51758;SDS011;66684;47.568;18.734;2023-05-27T02:52:53;19.25;;;12.45;;
51758;SDS011;66684;47.568;18.734;2023-05-27T02:55:19;17.00;;;12.70;;
51758;SDS011;66684;47.568;18.734;2023-05-27T02:57:45;18.77;;;12.35;;
51758;SDS011;66684;47.568;18.734;2023-05-27T03:00:12;15.05;;;11.82;;
51758;SDS011;66684;47.568;18.734;2023-05-27T03:02:39;17.02;;;12.32;;
51758;SDS011;66684;47.568;18.734;2023-05-27T03:05:05;18.60;;;13.25;;
51758;SDS011;66684;47.568;18.734;2023-05-27T03:07:31;17.15;;;13.20;;
51758;SDS011;66684;47.568;18.734;2023-05-27T03:09:57;17.25;;;13.35;;
51758;SDS011;66684;47.568;18.734;2023-05-27T03:12:23;17.33;;;12.77;;
51758;SDS011;66684;47.568;18.734;2023-05-27T03:14:49;17.05;;;12.85;;
51758;SDS011;66684;47.568;18.734;2023-05-27T03:17:17;20.98;;;13.27;;
51758;SDS011;66684;47.568;18.734;2023-05-27T03:19:44;16.35;;;12.23;;
51758;SDS011;66684;47.568;18.734;2023-05-27T03:22:11;15.43;;;13.07;;
51758;SDS011;66684;47.568;18.734;2023-05-27T03:24:37;21.15;;;13.80;;
51758;SDS011;66684;47.568;18.734;2023-05-27T03:27:02;15.60;;;13.25;;
51758;SDS011;66684;47.568;18.734;2023-05-27T03:29:31;15.15;;;13.25;;
51758;SDS011;66684;47.568;18.734;2023-05-27T03:31:57;21.85;;;13.82;;
51758;SDS011;66684;47.568;18.734;2023-05-27T03:34:24;23.87;;;13.20;;
51758;SDS011;66684;47.568;18.734;2023-05-27T03:36:50;17.12;;;12.70;;
51758;SDS011;66684;47.568;18.734;2023-05-27T03:39:16;17.48;;;13.73;;
51758;SDS011;66684;47.568;18.734;2023-05-27T03:41:43;17.62;;;12.95;;
51758;SDS011;66684;47.568;18.734;2023-05-27T03:44:09;16.83;;;12.57;;
51758;SDS011;66684;47.568;18.734;2023-05-27T03:46:35;20.15;;;12.48;;
51758;SDS011;66684;47.568;18.734;2023-05-27T03:49:01;14.95;;;12.48;;
51758;SDS011;66684;47.568;18.734;2023-05-27T03:51:27;14.40;;;12.27;;
51758;SDS011;66684;47.568;18.734;2023-05-27T03:53:53;16.85;;;11.43;;
51758;SDS011;66684;47.568;18.734;2023-05-27T03:56:19;15.85;;;12.25;;
51758;SDS011;66684;47.568;18.734;2023-05-27T03:58:45;15.45;;;11.85;;
51758;SDS011;66684;47.568;18.734;2023-05-27T04:01:11;16.45;;;10.82;;
51758;SDS011;66684;47.568;18.734;2023-05-27T04:03:38;14.30;;;11.05;;
51758;SDS011;66684;47.568;18.734;2023-05-27T04:06:05;16.20;;;11.95;;
51758;SDS011;66684;47.568;18.734;2023-05-27T04:08:31;15.55;;;11.40;;
51758;SDS011;66684;47.568;18.734;2023-05-27T04:10:57;17.85;;;10.93;;
51758;SDS011;66684;47.568;18.734;2023-05-27T04:13:23;15.98;;;10.93;;
51758;SDS011;66684;47.568;18.734;2023-05-27T04:15:49;15.38;;;12.00;;
51758;SDS011;66684;47.568;18.734;2023-05-27T04:18:15;15.20;;;10.57;;
51758;SDS011;66684;47.568;18.734;2023-05-27T04:20:41;13.45;;;10.45;;
51758;SDS011;66684;47.568;18.734;2023-05-27T04:23:08;15.57;;;11.12;;
51758;SDS011;66684;47.568;18.734;2023-05-27T04:25:34;13.55;;;10.32;;
51758;SDS011;66684;47.568;18.734;2023-05-27T04:28:01;13.07;;;10.20;;
51758;SDS011;66684;47.568;18.734;2023-05-27T04:30:33;14.43;;;10.63;;
51758;SDS011;66684;47.568;18.734;2023-05-27T04:33:00;19.25;;;11.10;;
51758;SDS011;66684;47.568;18.734;2023-05-27T04:35:26;19.10;;;11.30;;
51758;SDS011;66684;47.568;18.734;2023-05-27T04:37:52;16.20;;;11.43;;
51758;SDS011;66684;47.568;18.734;2023-05-27T04:40:18;17.50;;;11.02;;
51758;SDS011;66684;47.568;18.734;2023-05-27T04:42:45;18.17;;;11.40;;
51758;SDS011;66684;47.568;18.734;2023-05-27T04:45:12;14.20;;;10.80;;
51758;SDS011;66684;47.568;18.734;2023-05-27T04:47:38;17.80;;;10.98;;
51758;SDS011;66684;47.568;18.734;2023-05-27T04:50:06;19.85;;;11.40;;
51758;SDS011;66684;47.568;18.734;2023-05-27T04:52:33;15.13;;;10.20;;
51758;SDS011;66684;47.568;18.734;2023-05-27T04:55:09;15.52;;;11.32;;
51758;SDS011;66684;47.568;18.734;2023-05-27T04:57:35;16.00;;;10.60;;
51758;SDS011;66684;47.568;18.734;2023-05-27T05:00:04;15.68;;;10.75;;
51758;SDS011;66684;47.568;18.734;2023-05-27T05:02:31;16.73;;;10.32;;
51758;SDS011;66684;47.568;18.734;2023-05-27T05:05:06;12.80;;;10.00;;
51758;SDS011;66684;47.568;18.734;2023-05-27T05:07:34;14.87;;;9.68;;
51758;SDS011;66684;47.568;18.734;2023-05-27T05:10:04;13.15;;;9.10;;
51758;SDS011;66684;47.568;18.734;2023-05-27T05:12:30;12.20;;;9.15;;
51758;SDS011;66684;47.568;18.734;2023-05-27T05:14:57;13.57;;;9.50;;
51758;SDS011;66684;47.568;18.734;2023-05-27T05:17:23;12.90;;;9.23;;
51758;SDS011;66684;47.568;18.734;2023-05-27T05:19:50;15.30;;;9.07;;
51758;SDS011;66684;47.568;18.734;2023-05-27T05:22:17;14.13;;;9.10;;
51758;SDS011;66684;47.568;18.734;2023-05-27T05:24:48;14.15;;;9.13;;
51758;SDS011;66684;47.568;18.734;2023-05-27T05:27:15;14.25;;;8.65;;
51758;SDS011;66684;47.568;18.734;2023-05-27T05:29:41;12.40;;;9.20;;
51758;SDS011;66684;47.568;18.734;2023-05-27T05:32:09;14.00;;;9.18;;
51758;SDS011;66684;47.568;18.734;2023-05-27T05:34:37;13.60;;;8.52;;
51758;SDS011;66684;47.568;18.734;2023-05-27T05:37:03;12.27;;;8.45;;
51758;SDS011;66684;47.568;18.734;2023-05-27T05:39:30;11.40;;;8.80;;
51758;SDS011;66684;47.568;18.734;2023-05-27T05:41:56;14.60;;;9.25;;
51758;SDS011;66684;47.568;18.734;2023-05-27T05:44:23;17.55;;;9.15;;
51758;SDS011;66684;47.568;18.734;2023-05-27T05:46:49;13.20;;;8.45;;
51758;SDS011;66684;47.568;18.734;2023-05-27T05:49:17;14.77;;;8.93;;
51758;SDS011;66684;47.568;18.734;2023-05-27T05:51:44;11.90;;;8.63;;
51758;SDS011;66684;47.568;18.734;2023-05-27T05:54:10;13.05;;;8.07;;
51758;SDS011;66684;47.568;18.734;2023-05-27T05:56:36;13.23;;;8.85;;
51758;SDS011;66684;47.568;18.734;2023-05-27T05:59:02;13.02;;;8.88;;
51758;SDS011;66684;47.568;18.734;2023-05-27T06:01:27;14.05;;;7.87;;
51758;SDS011;66684;47.568;18.734;2023-05-27T06:03:53;13.13;;;7.75;;
51758;SDS011;66684;47.568;18.734;2023-05-27T06:06:20;11.80;;;7.78;;
51758;SDS011;66684;47.568;18.734;2023-05-27T06:08:47;13.70;;;8.20;;
51758;SDS011;66684;47.568;18.734;2023-05-27T06:11:13;12.95;;;7.62;;
51758;SDS011;66684;47.568;18.734;2023-05-27T06:13:39;11.55;;;7.65;;
51758;SDS011;66684;47.568;18.734;2023-05-27T06:16:05;15.25;;;7.53;;
51758;SDS011;66684;47.568;18.734;2023-05-27T06:18:31;11.02;;;7.28;;
51758;SDS011;66684;47.568;18.734;2023-05-27T06:20:57;13.10;;;7.40;;
51758;SDS011;66684;47.568;18.734;2023-05-27T06:23:23;19.17;;;7.65;;
51758;SDS011;66684;47.568;18.734;2023-05-27T06:25:49;13.00;;;7.45;;
51758;SDS011;66684;47.568;18.734;2023-05-27T06:28:15;11.15;;;7.32;;
51758;SDS011;66684;47.568;18.734;2023-05-27T06:30:41;10.43;;;7.28;;
51758;SDS011;66684;47.568;18.734;2023-05-27T06:33:08;13.70;;;6.93;;
51758;SDS011;66684;47.568;18.734;2023-05-27T06:35:34;14.82;;;6.97;;
51758;SDS011;66684;47.568;18.734;2023-05-27T06:38:00;11.93;;;7.12;;
51758;SDS011;66684;47.568;18.734;2023-05-27T06:40:26;12.77;;;7.22;;
51758;SDS011;66684;47.568;18.734;2023-05-27T06:42:53;12.70;;;7.53;;
51758;SDS011;66684;47.568;18.734;2023-05-27T06:45:19;11.02;;;6.97;;
51758;SDS011;66684;47.568;18.734;2023-05-27T06:47:45;12.57;;;6.60;;
51758;SDS011;66684;47.568;18.734;2023-05-27T06:50:11;19.17;;;6.70;;
51758;SDS011;66684;47.568;18.734;2023-05-27T06:52:37;9.90;;;6.10;;
51758;SDS011;66684;47.568;18.734;2023-05-27T06:55:03;9.32;;;6.12;;
51758;SDS011;66684;47.568;18.734;2023-05-27T06:57:29;11.60;;;6.87;;
51758;SDS011;66684;47.568;18.734;2023-05-27T06:59:55;12.77;;;6.18;;
51758;SDS011;66684;47.568;18.734;2023-05-27T07:02:21;13.38;;;6.05;;
51758;SDS011;66684;47.568;18.734;2023-05-27T07:04:47;11.05;;;6.22;;
51758;SDS011;66684;47.568;18.734;2023-05-27T07:07:13;10.73;;;6.60;;
51758;SDS011;66684;47.568;18.734;2023-05-27T07:09:39;15.80;;;6.47;;
51758;SDS011;66684;47.568;18.734;2023-05-27T07:12:05;13.05;;;6.50;;
51758;SDS011;66684;47.568;18.734;2023-05-27T07:14:34;10.77;;;5.43;;
51758;SDS011;66684;47.568;18.734;2023-05-27T07:17:00;17.75;;;6.47;;
51758;SDS011;66684;47.568;18.734;2023-05-27T07:19:26;9.35;;;5.95;;
51758;SDS011;66684;47.568;18.734;2023-05-27T07:21:52;9.18;;;5.68;;
51758;SDS011;66684;47.568;18.734;2023-05-27T07:24:18;9.25;;;5.70;;
51758;SDS011;66684;47.568;18.734;2023-05-27T07:26:44;13.45;;;6.70;;
51758;SDS011;66684;47.568;18.734;2023-05-27T07:29:10;12.43;;;6.53;;
51758;SDS011;66684;47.568;18.734;2023-05-27T07:31:36;9.25;;;5.78;;
51758;SDS011;66684;47.568;18.734;2023-05-27T07:34:02;9.70;;;5.30;;
51758;SDS011;66684;47.568;18.734;2023-05-27T07:36:29;9.95;;;5.57;;
51758;SDS011;66684;47.568;18.734;2023-05-27T07:38:54;12.10;;;5.15;;
51758;SDS011;66684;47.568;18.734;2023-05-27T07:41:20;12.63;;;5.75;;
51758;SDS011;66684;47.568;18.734;2023-05-27T07:43:47;12.75;;;5.60;;
51758;SDS011;66684;47.568;18.734;2023-05-27T07:46:13;11.02;;;5.95;;
51758;SDS011;66684;47.568;18.734;2023-05-27T07:48:39;11.32;;;6.78;;
51758;SDS011;66684;47.568;18.734;2023-05-27T07:51:05;18.27;;;6.25;;
51758;SDS011;66684;47.568;18.734;2023-05-27T07:53:30;12.25;;;6.05;;
51758;SDS011;66684;47.568;18.734;2023-05-27T07:55:56;11.80;;;6.12;;
51758;SDS011;66684;47.568;18.734;2023-05-27T07:58:22;10.43;;;5.30;;
51758;SDS011;66684;47.568;18.734;2023-05-27T08:00:48;14.73;;;5.70;;
51758;SDS011;66684;47.568;18.734;2023-05-27T08:03:14;16.83;;;5.85;;
51758;SDS011;66684;47.568;18.734;2023-05-27T08:05:40;13.88;;;7.05;;
51758;SDS011;66684;47.568;18.734;2023-05-27T08:08:06;10.70;;;6.18;;
51758;SDS011;66684;47.568;18.734;2023-05-27T08:10:32;12.20;;;5.45;;
51758;SDS011;66684;47.568;18.734;2023-05-27T08:12:58;9.02;;;5.03;;
51758;SDS011;66684;47.568;18.734;2023-05-27T08:15:24;13.38;;;6.07;;
51758;SDS011;66684;47.568;18.734;2023-05-27T08:17:50;12.95;;;5.75;;
51758;SDS011;66684;47.568;18.734;2023-05-27T08:20:16;11.73;;;5.50;;
51758;SDS011;66684;47.568;18.734;2023-05-27T08:22:42;10.23;;;5.72;;
51758;SDS011;66684;47.568;18.734;2023-05-27T08:25:08;12.37;;;5.70;;
51758;SDS011;66684;47.568;18.734;2023-05-27T08:27:53;8.48;;;6.25;;
51758;SDS011;66684;47.568;18.734;2023-05-27T08:30:27;11.40;;;6.78;;
51758;SDS011;66684;47.568;18.734;2023-05-27T08:32:57;9.63;;;5.40;;
51758;SDS011;66684;47.568;18.734;2023-05-27T08:35:24;11.05;;;5.57;;
51758;SDS011;66684;47.568;18.734;2023-05-27T08:37:50;11.35;;;5.40;;
51758;SDS011;66684;47.568;18.734;2023-05-27T08:40:17;13.05;;;5.60;;
51758;SDS011;66684;47.568;18.734;2023-05-27T08:42:44;10.15;;;5.57;;
51758;SDS011;66684;47.568;18.734;2023-05-27T08:45:11;15.27;;;5.53;;
51758;SDS011;66684;47.568;18.734;2023-05-27T08:47:37;10.25;;;5.00;;
51758;SDS011;66684;47.568;18.734;2023-05-27T08:50:04;11.35;;;5.50;;
51758;SDS011;66684;47.568;18.734;2023-05-27T08:52:32;9.25;;;4.60;;
51758;SDS011;66684;47.568;18.734;2023-05-27T08:55:00;8.02;;;4.50;;
51758;SDS011;66684;47.568;18.734;2023-05-27T08:57:29;7.43;;;4.50;;
51758;SDS011;66684;47.568;18.734;2023-05-27T08:59:57;9.15;;;4.68;;
51758;SDS011;66684;47.568;18.734;2023-05-27T09:02:24;10.52;;;5.00;;
51758;SDS011;66684;47.568;18.734;2023-05-27T09:04:50;9.63;;;4.72;;
51758;SDS011;66684;47.568;18.734;2023-05-27T09:07:18;11.65;;;4.55;;
51758;SDS011;66684;47.568;18.734;2023-05-27T09:09:55;8.85;;;4.43;;
51758;SDS011;66684;47.568;18.734;2023-05-27T09:12:25;13.88;;;5.20;;
51758;SDS011;66684;47.568;18.734;2023-05-27T09:15:11;16.67;;;5.97;;
51758;SDS011;66684;47.568;18.734;2023-05-27T09:17:44;11.45;;;5.22;;
51758;SDS011;66684;47.568;18.734;2023-05-27T09:20:11;12.13;;;4.90;;
51758;SDS011;66684;47.568;18.734;2023-05-27T09:22:38;14.52;;;5.00;;
51758;SDS011;66684;47.568;18.734;2023-05-27T09:25:05;10.20;;;4.50;;
51758;SDS011;66684;47.568;18.734;2023-05-27T09:27:32;9.13;;;5.00;;
51758;SDS011;66684;47.568;18.734;2023-05-27T09:30:05;9.13;;;5.07;;
51758;SDS011;66684;47.568;18.734;2023-05-27T09:32:32;13.07;;;7.95;;
51758;SDS011;66684;47.568;18.734;2023-05-27T09:34:59;33.30;;;7.20;;
51758;SDS011;66684;47.568;18.734;2023-05-27T09:40:09;7.53;;;4.57;;
51758;SDS011;66684;47.568;18.734;2023-05-27T09:45:11;8.02;;;4.70;;
51758;SDS011;66684;47.568;18.734;2023-05-27T09:47:43;10.95;;;4.70;;
51758;SDS011;66684;47.568;18.734;2023-05-27T09:50:12;11.80;;;4.68;;
51758;SDS011;66684;47.568;18.734;2023-05-27T09:52:42;38.40;;;6.22;;
51758;SDS011;66684;47.568;18.734;2023-05-27T09:55:10;10.43;;;4.78;;
51758;SDS011;66684;47.568;18.734;2023-05-27T09:57:38;6.97;;;4.18;;
51758;SDS011;66684;47.568;18.734;2023-05-27T10:00:05;6.78;;;3.80;;
51758;SDS011;66684;47.568;18.734;2023-05-27T10:02:41;7.65;;;4.57;;
51758;SDS011;66684;47.568;18.734;2023-05-27T10:05:08;14.77;;;4.45;;
51758;SDS011;66684;47.568;18.734;2023-05-27T10:07:38;9.05;;;4.45;;
51758;SDS011;66684;47.568;18.734;2023-05-27T10:10:09;8.85;;;3.92;;
51758;SDS011;66684;47.568;18.734;2023-05-27T10:12:37;6.87;;;3.97;;
51758;SDS011;66684;47.568;18.734;2023-05-27T10:15:04;9.50;;;4.20;;
51758;SDS011;66684;47.568;18.734;2023-05-27T10:17:41;7.18;;;3.58;;
51758;SDS011;66684;47.568;18.734;2023-05-27T10:20:08;7.47;;;4.28;;
51758;SDS011;66684;47.568;18.734;2023-05-27T10:22:38;7.47;;;4.18;;
51758;SDS011;66684;47.568;18.734;2023-05-27T10:25:11;9.70;;;4.40;;
51758;SDS011;66684;47.568;18.734;2023-05-27T10:27:45;8.07;;;3.97;;
51758;SDS011;66684;47.568;18.734;2023-05-27T10:30:13;7.00;;;4.45;;
51758;SDS011;66684;47.568;18.734;2023-05-27T10:32:43;6.62;;;3.83;;
51758;SDS011;66684;47.568;18.734;2023-05-27T10:35:19;7.25;;;3.53;;
51758;SDS011;66684;47.568;18.734;2023-05-27T10:37:48;6.20;;;3.83;;
51758;SDS011;66684;47.568;18.734;2023-05-27T10:40:23;8.30;;;3.85;;
51758;SDS011;66684;47.568;18.734;2023-05-27T10:42:57;9.23;;;4.30;;
51758;SDS011;66684;47.568;18.734;2023-05-27T10:45:30;15.70;;;4.47;;
51758;SDS011;66684;47.568;18.734;2023-05-27T10:47:58;7.90;;;4.78;;
51758;SDS011;66684;47.568;18.734;2023-05-27T10:50:30;14.18;;;4.87;;
51758;SDS011;66684;47.568;18.734;2023-05-27T10:52:59;8.52;;;4.97;;
51758;SDS011;66684;47.568;18.734;2023-05-27T10:55:26;10.23;;;4.47;;
51758;SDS011;66684;47.568;18.734;2023-05-27T10:57:52;11.52;;;5.37;;
51758;SDS011;66684;47.568;18.734;2023-05-27T11:00:19;8.13;;;4.68;;
51758;SDS011;66684;47.568;18.734;2023-05-27T11:02:46;9.73;;;4.43;;
51758;SDS011;66684;47.568;18.734;2023-05-27T11:05:15;9.68;;;4.95;;
51758;SDS011;66684;47.568;18.734;2023-05-27T11:07:42;6.53;;;4.28;;
51758;SDS011;66684;47.568;18.734;2023-05-27T11:10:08;6.93;;;4.18;;
51758;SDS011;66684;47.568;18.734;2023-05-27T11:12:34;8.35;;;4.68;;
51758;SDS011;66684;47.568;18.734;2023-05-27T11:15:01;12.82;;;5.00;;
51758;SDS011;66684;47.568;18.734;2023-05-27T11:17:27;9.82;;;4.72;;
51758;SDS011;66684;47.568;18.734;2023-05-27T11:19:54;7.45;;;4.45;;
51758;SDS011;66684;47.568;18.734;2023-05-27T11:22:20;7.90;;;4.22;;
51758;SDS011;66684;47.568;18.734;2023-05-27T11:25:08;8.63;;;4.30;;
51758;SDS011;66684;47.568;18.734;2023-05-27T11:27:35;9.15;;;4.50;;
51758;SDS011;66684;47.568;18.734;2023-05-27T11:30:06;9.23;;;4.32;;
51758;SDS011;66684;47.568;18.734;2023-05-27T11:32:35;12.98;;;5.07;;
51758;SDS011;66684;47.568;18.734;2023-05-27T11:35:01;11.40;;;5.40;;
51758;SDS011;66684;47.568;18.734;2023-05-27T11:37:33;7.53;;;4.82;;
51758;SDS011;66684;47.568;18.734;2023-05-27T11:40:00;8.15;;;4.90;;
51758;SDS011;66684;47.568;18.734;2023-05-27T11:42:28;9.02;;;5.15;;
51758;SDS011;66684;47.568;18.734;2023-05-27T11:44:55;7.05;;;4.75;;
51758;SDS011;66684;47.568;18.734;2023-05-27T11:47:22;11.65;;;4.68;;
51758;SDS011;66684;47.568;18.734;2023-05-27T11:49:48;7.87;;;4.65;;
51758;SDS011;66684;47.568;18.734;2023-05-27T11:52:14;12.45;;;4.80;;
51758;SDS011;66684;47.568;18.734;2023-05-27T11:54:40;8.32;;;5.47;;
51758;SDS011;66684;47.568;18.734;2023-05-27T11:57:06;9.82;;;5.15;;
51758;SDS011;66684;47.568;18.734;2023-05-27T11:59:33;11.30;;;5.40;;
51758;SDS011;66684;47.568;18.734;2023-05-27T12:02:00;8.35;;;5.47;;
51758;SDS011;66684;47.568;18.734;2023-05-27T12:04:26;12.50;;;6.00;;
51758;SDS011;66684;47.568;18.734;2023-05-27T12:06:52;8.70;;;5.20;;
51758;SDS011;66684;47.568;18.734;2023-05-27T12:09:17;9.32;;;5.40;;
51758;SDS011;66684;47.568;18.734;2023-05-27T12:11:44;24.08;;;6.12;;
51758;SDS011;66684;47.568;18.734;2023-05-27T12:14:10;10.45;;;4.87;;
51758;SDS011;66684;47.568;18.734;2023-05-27T12:16:36;9.25;;;5.20;;
51758;SDS011;66684;47.568;18.734;2023-05-27T12:19:02;8.00;;;5.07;;
51758;SDS011;66684;47.568;18.734;2023-05-27T12:21:28;12.25;;;5.68;;
51758;SDS011;66684;47.568;18.734;2023-05-27T12:23:54;10.88;;;5.80;;
51758;SDS011;66684;47.568;18.734;2023-05-27T12:26:20;11.88;;;6.05;;
51758;SDS011;66684;47.568;18.734;2023-05-27T12:28:46;15.70;;;6.47;;
51758;SDS011;66684;47.568;18.734;2023-05-27T12:31:12;12.77;;;6.03;;
51758;SDS011;66684;47.568;18.734;2023-05-27T12:33:38;14.90;;;6.05;;
51758;SDS011;66684;47.568;18.734;2023-05-27T12:36:04;9.10;;;5.32;;
51758;SDS011;66684;47.568;18.734;2023-05-27T12:38:33;11.38;;;5.25;;
51758;SDS011;66684;47.568;18.734;2023-05-27T12:40:59;10.48;;;5.60;;
51758;SDS011;66684;47.568;18.734;2023-05-27T12:43:25;7.07;;;4.72;;
51758;SDS011;66684;47.568;18.734;2023-05-27T12:45:51;11.68;;;5.65;;
51758;SDS011;66684;47.568;18.734;2023-05-27T12:48:17;8.95;;;5.10;;
51758;SDS011;66684;47.568;18.734;2023-05-27T12:50:44;10.82;;;5.25;;
51758;SDS011;66684;47.568;18.734;2023-05-27T12:53:10;9.73;;;5.40;;
51758;SDS011;66684;47.568;18.734;2023-05-27T12:55:36;9.60;;;5.50;;
51758;SDS011;66684;47.568;18.734;2023-05-27T12:58:02;10.70;;;5.25;;
51758;SDS011;66684;47.568;18.734;2023-05-27T13:00:28;9.68;;;5.53;;
51758;SDS011;66684;47.568;18.734;2023-05-27T13:02:56;8.30;;;5.05;;
51758;SDS011;66684;47.568;18.734;2023-05-27T13:05:22;8.30;;;4.97;;
51758;SDS011;66684;47.568;18.734;2023-05-27T13:07:56;12.57;;;5.97;;
51758;SDS011;66684;47.568;18.734;2023-05-27T13:10:23;11.68;;;5.95;;
51758;SDS011;66684;47.568;18.734;2023-05-27T13:12:49;6.75;;;5.18;;
51758;SDS011;66684;47.568;18.734;2023-05-27T13:15:16;9.32;;;4.78;;
51758;SDS011;66684;47.568;18.734;2023-05-27T13:17:45;12.45;;;5.65;;
51758;SDS011;66684;47.568;18.734;2023-05-27T13:20:12;11.75;;;5.68;;
51758;SDS011;66684;47.568;18.734;2023-05-27T13:22:39;11.35;;;5.28;;
51758;SDS011;66684;47.568;18.734;2023-05-27T13:25:06;9.70;;;5.53;;
51758;SDS011;66684;47.568;18.734;2023-05-27T13:27:32;9.25;;;5.10;;
51758;SDS011;66684;47.568;18.734;2023-05-27T13:29:58;7.72;;;5.53;;
51758;SDS011;66684;47.568;18.734;2023-05-27T13:32:24;9.65;;;5.35;;
51758;SDS011;66684;47.568;18.734;2023-05-27T13:34:50;10.25;;;5.03;;
51758;SDS011;66684;47.568;18.734;2023-05-27T13:37:20;9.43;;;5.75;;
51758;SDS011;66684;47.568;18.734;2023-05-27T13:39:46;10.20;;;5.43;;
51758;SDS011;66684;47.568;18.734;2023-05-27T13:42:12;10.30;;;5.50;;
51758;SDS011;66684;47.568;18.734;2023-05-27T13:44:38;8.90;;;5.55;;
51758;SDS011;66684;47.568;18.734;2023-05-27T13:47:04;9.77;;;5.35;;
51758;SDS011;66684;47.568;18.734;2023-05-27T13:49:31;9.48;;;5.37;;
51758;SDS011;66684;47.568;18.734;2023-05-27T13:51:57;13.20;;;5.50;;
51758;SDS011;66684;47.568;18.734;2023-05-27T13:54:23;8.48;;;5.22;;
51758;SDS011;66684;47.568;18.734;2023-05-27T13:56:49;15.38;;;5.18;;
51758;SDS011;66684;47.568;18.734;2023-05-27T13:59:16;10.50;;;5.37;;
51758;SDS011;66684;47.568;18.734;2023-05-27T14:01:42;8.55;;;4.70;;
51758;SDS011;66684;47.568;18.734;2023-05-27T14:04:07;7.68;;;5.07;;
51758;SDS011;66684;47.568;18.734;2023-05-27T14:06:33;9.90;;;5.07;;
51758;SDS011;66684;47.568;18.734;2023-05-27T14:09:00;10.05;;;5.22;;
51758;SDS011;66684;47.568;18.734;2023-05-27T14:11:27;10.90;;;4.72;;
51758;SDS011;66684;47.568;18.734;2023-05-27T14:13:53;10.00;;;4.93;;
51758;SDS011;66684;47.568;18.734;2023-05-27T14:16:22;10.02;;;5.40;;
51758;SDS011;66684;47.568;18.734;2023-05-27T14:18:51;8.45;;;4.65;;
51758;SDS011;66684;47.568;18.734;2023-05-27T14:21:17;8.57;;;4.93;;
51758;SDS011;66684;47.568;18.734;2023-05-27T14:23:43;10.10;;;4.60;;
51758;SDS011;66684;47.568;18.734;2023-05-27T14:26:10;7.43;;;4.57;;
51758;SDS011;66684;47.568;18.734;2023-05-27T14:28:36;9.07;;;4.55;;
51758;SDS011;66684;47.568;18.734;2023-05-27T14:31:02;7.78;;;5.07;;